Language selection

Features

My Weather Profile Weather Topics  | 

Pacific - North Coast: Past 24 Hour Conditions

 

Masset Municipal Airport

01:00 AM PST 17 November 2019
Disclaimer

This table is a summary of hourly weather conditions for the past 24 hours.
Please note that these observations might not always be representative of weather conditions over their associated marine area.

Date / Time
(PST)
Wind(knots) Conditions Visibility(km) Pressure(kPa) Air tempC) Relative humidity(%) Dew pointC)
17 November 2019
1:00 S 9 N/A N/A 99.5 11 94 10
0:00 S 7 N/A N/A 99.5 12 92 11
16 November 2019
23:00 S 7 N/A N/A 99.4 12 95 11
22:00 SSE 7 N/A N/A 99.3 12 97 11
21:00 SSE 8 N/A N/A 99.3 12 97 12
20:00 S 7 N/A N/A 99.2 13 95 12
19:00 S 12 N/A N/A 99.2 13 100 13
18:00 S 9 Light Rainshower 16 99.1 12 100 12
17:00 SSE 10 Light Rainshower 16 99.1 12 100 12
16:00 S 7 Light Rainshower 13 99.3 12 100 12
15:00 SSE 6 Light Rainshower 16 99.3 12 100 12
14:00 SSE 7 Light Rainshower 16 99.4 11 100 11
13:00 SSE 11 gust 19 Light Rain 13 99.4 11 99 11
12:00 SSE 18 gust 25 Light Rain 8 99.6 11 99 11
11:00 SSE 19 gust 28 Light Rain 10 99.6 11 98 10
10:00 SSE 20 gust 36 Light Rain 8 99.7 11 97 10
9:00 SSE 22 gust 31 Light Rain 5 99.8 11 98 10
8:00 SSE 27 gust 40 Light Rain 5 99.8 11 96 10
7:00 SSE 23 gust 35 Light Rain 13 99.9 11 94 10
6:00 SSE 26 gust 49 N/A N/A 100.0 10 93 9
5:00 SSE 31 gust 45 N/A N/A 100.0 10 89 9
4:00 SSE 30 gust 49 N/A N/A 100.1 10 86 8
3:00 SSE 26 gust 38 N/A N/A 100.3 10 91 8
2:00 SSE 16 gust 29 N/A N/A 100.6 10 95 9
1:00 SSE 17 gust 26 N/A N/A 100.8 10 87 8

Zoom-in to make a selection

Map of Pacific - North Coast marine weather areas Middle Nomad - 46004 South Nomad - 46036 Dixon Entrance Central - 46145 South Moresby - 46147 Nanakwa Shoal - 46181 North Hecate Strait - 46183 North Nomad - 46184 South Hecate Strait - 46185 West Sea Otter - 46204 West Dixon Entrance - 46205 East Dellwood - 46207 West Moresby - 46208 Sartine Island Cape St.James Kindakun Rocks Langara Island Masset Municipal Airport Rose Spit Sandspit Airport Bella Bella Airport Bella Coola Airport Bonilla Island Cathedral Point Cumshewa Island Grey Islet Holland Rock Lucy Islands Lightstation Prince Rupert Airport
Legend:
buoy Buoy
land station Land Station

Pacific - North Coast Area

Another Region

What we are doing

Date modified: